createdAt,value
2023-03-17T00:00:14.707Z,4.14
2023-03-17T00:00:47.391Z,4.15
2023-03-17T00:01:20.071Z,4.15
2023-03-17T00:01:52.725Z,4.16
2023-03-17T00:02:25.445Z,4.14
2023-03-17T00:02:58.126Z,4.14
2023-03-17T00:03:30.837Z,4.14
2023-03-17T00:04:03.614Z,4.15
2023-03-17T00:04:36.306Z,4.15
2023-03-17T00:05:08.980Z,4.15
2023-03-17T00:05:41.653Z,4.15
2023-03-17T00:06:14.340Z,4.14
2023-03-17T00:06:47.010Z,4.15
2023-03-17T00:07:19.693Z,4.15
2023-03-17T00:07:52.359Z,4.15
2023-03-17T00:08:25.021Z,4.14
2023-03-17T00:08:57.735Z,4.14
2023-03-17T00:09:30.433Z,4.14
2023-03-17T00:10:03.090Z,4.15
2023-03-17T00:10:35.767Z,4.15
2023-03-17T00:11:08.488Z,4.15
2023-03-17T00:11:41.161Z,4.14
2023-03-17T00:12:13.829Z,4.15
2023-03-17T00:12:46.515Z,4.14
2023-03-17T00:13:19.183Z,4.15
2023-03-17T00:13:51.858Z,4.15
2023-03-17T00:14:24.528Z,4.14
2023-03-17T00:14:57.214Z,4.12
2023-03-17T00:15:29.873Z,4.14
2023-03-17T00:16:02.645Z,4.14
2023-03-17T00:16:35.335Z,4.12
2023-03-17T00:17:08.007Z,4.14
2023-03-17T00:17:40.768Z,4.15
2023-03-17T00:18:13.434Z,4.11
2023-03-17T00:18:46.119Z,4.12
2023-03-17T00:19:18.766Z,4.12
2023-03-17T00:19:51.439Z,4.11
2023-03-17T00:20:24.104Z,4.14
2023-03-17T00:20:56.809Z,4.12
2023-03-17T00:21:29.458Z,4.12
2023-03-17T00:22:02.177Z,4.12
2023-03-17T00:22:34.857Z,4.11
2023-03-17T00:23:07.521Z,4.12
2023-03-17T00:23:40.191Z,4.12
2023-03-17T00:24:14.867Z,4.12
2023-03-17T00:24:43.954Z,4.12
2023-03-17T00:25:16.652Z,4.12
2023-03-17T00:25:49.300Z,4.12
2023-03-17T00:26:21.997Z,4.12
2023-03-17T00:26:54.671Z,4.12
2023-03-17T00:27:27.329Z,4.12
2023-03-17T00:28:00.016Z,4.11
2023-03-17T00:28:32.699Z,4.09
2023-03-17T00:29:05.365Z,4.06
2023-03-17T00:29:38.038Z,4.06
2023-03-17T00:30:10.728Z,4.08
2023-03-17T00:30:43.369Z,4.05
2023-03-17T00:31:16.170Z,4.05
2023-03-17T00:31:48.846Z,4.05
2023-03-17T00:32:21.513Z,4.05
2023-03-17T00:32:54.229Z,4.04
2023-03-17T00:33:26.864Z,4.04
2023-03-17T00:33:59.531Z,4.05
2023-03-17T00:34:32.197Z,4.02
2023-03-17T00:35:04.908Z,4.02
2023-03-17T00:35:37.630Z,4.00
2023-03-17T00:36:10.288Z,4.04
2023-03-17T00:36:42.979Z,4.04
2023-03-17T00:37:15.646Z,4.04
2023-03-17T00:37:48.304Z,4.02
2023-03-17T00:38:20.992Z,4.04
2023-03-17T00:38:53.648Z,4.02
2023-03-17T00:39:26.327Z,4.02
2023-03-17T00:39:58.980Z,4.02
2023-03-17T00:40:32.211Z,4.02
2023-03-17T00:40:58.622Z,4.02
2023-03-17T00:41:31.287Z,4.00
2023-03-17T00:42:03.927Z,3.98
2023-03-17T00:42:36.594Z,3.98
2023-03-17T00:43:09.276Z,4.00
2023-03-17T00:43:41.958Z,4.00
2023-03-17T00:44:14.624Z,4.02
2023-03-17T00:44:47.288Z,4.00
2023-03-17T00:45:19.989Z,4.00
2023-03-17T00:45:52.636Z,3.97
2023-03-17T00:46:25.372Z,3.97
2023-03-17T00:46:58.124Z,3.97
2023-03-17T00:47:30.830Z,3.94
2023-03-17T00:48:03.500Z,3.96
2023-03-17T00:48:36.165Z,3.96
2023-03-17T00:49:08.824Z,3.97
2023-03-17T00:49:41.553Z,3.94
2023-03-17T00:50:14.195Z,3.96
2023-03-17T00:50:46.866Z,3.97
2023-03-17T00:51:19.558Z,3.97
2023-03-17T00:51:52.258Z,3.97
2023-03-17T00:52:24.898Z,3.97
2023-03-17T00:52:57.577Z,3.97
2023-03-17T00:53:30.239Z,3.97
2023-03-17T00:54:02.895Z,3.96
2023-03-17T00:54:35.624Z,3.98
2023-03-17T00:55:08.285Z,4.00
2023-03-17T00:55:40.991Z,4.00
2023-03-17T00:56:13.650Z,4.00
2023-03-17T00:56:46.322Z,4.00
2023-03-17T00:57:18.997Z,3.97
2023-03-17T00:57:51.656Z,3.97
2023-03-17T00:58:24.315Z,3.98
2023-03-17T00:58:56.984Z,3.97
2023-03-17T00:59:29.647Z,3.98
2023-03-17T01:00:02.341Z,3.97
2023-03-17T01:00:35.033Z,3.97
2023-03-17T01:01:07.824Z,3.98
2023-03-17T01:01:40.514Z,3.97
2023-03-17T01:02:13.375Z,3.96
2023-03-17T01:02:46.141Z,3.97
2023-03-17T01:03:18.816Z,3.96
2023-03-17T01:03:51.506Z,3.96
2023-03-17T01:04:24.216Z,3.96
2023-03-17T01:05:05.695Z,3.97
2023-03-17T01:05:27.953Z,3.96
2023-03-17T01:06:00.642Z,3.96
2023-03-17T01:06:33.336Z,3.96
2023-03-17T01:07:06.033Z,3.96
2023-03-17T01:07:38.758Z,3.96
2023-03-17T01:08:11.422Z,3.94
2023-03-17T01:08:44.091Z,3.96
2023-03-17T01:09:16.766Z,3.96
2023-03-17T01:09:49.430Z,3.98
2023-03-17T01:10:22.112Z,3.97
2023-03-17T01:10:54.827Z,3.97
2023-03-17T01:11:27.487Z,4.00
2023-03-17T01:12:00.168Z,3.97
2023-03-17T01:12:32.834Z,3.98
2023-03-17T01:13:05.539Z,3.98
2023-03-17T01:13:38.178Z,3.98
2023-03-17T01:14:10.847Z,3.97
2023-03-17T01:14:43.521Z,3.97
2023-03-17T01:15:16.172Z,3.97
2023-03-17T01:15:48.859Z,3.98
2023-03-17T01:16:21.611Z,3.96
2023-03-17T01:16:54.271Z,3.96
2023-03-17T01:17:26.938Z,3.97
2023-03-17T01:17:59.621Z,3.94
2023-03-17T01:18:32.330Z,3.94
2023-03-17T01:19:04.987Z,3.96
2023-03-17T01:19:37.656Z,3.94
2023-03-17T01:20:10.323Z,3.93
2023-03-17T01:20:42.994Z,3.94
2023-03-17T01:21:15.701Z,3.93
2023-03-17T01:21:48.372Z,3.94
2023-03-17T01:22:21.032Z,3.93
2023-03-17T01:22:53.704Z,3.93
2023-03-17T01:23:26.387Z,3.94
2023-03-17T01:23:59.066Z,3.93
2023-03-17T01:24:31.750Z,3.93
2023-03-17T01:25:04.409Z,3.91
2023-03-17T01:25:37.083Z,3.93
2023-03-17T01:26:09.778Z,3.90
2023-03-17T01:26:42.445Z,3.91
2023-03-17T01:27:15.109Z,3.90
2023-03-17T01:27:47.784Z,3.91
2023-03-17T01:28:20.513Z,3.90
2023-03-17T01:28:53.166Z,3.90
2023-03-17T01:29:25.847Z,3.88
2023-03-17T01:29:58.510Z,3.90
2023-03-17T01:30:31.666Z,3.91
2023-03-17T01:31:02.309Z,3.91
2023-03-17T01:31:34.984Z,3.94
2023-03-17T01:32:07.644Z,3.96
2023-03-17T01:32:40.323Z,3.93
2023-03-17T01:33:13.024Z,3.93
2023-03-17T01:33:45.683Z,3.94
2023-03-17T01:34:18.355Z,3.94
2023-03-17T01:34:51.019Z,3.94
2023-03-17T01:35:23.682Z,3.93
2023-03-17T01:35:56.405Z,3.93
2023-03-17T01:36:29.062Z,3.94
2023-03-17T01:37:01.750Z,3.93
2023-03-17T01:37:34.429Z,3.93
2023-03-17T01:38:07.100Z,3.93
2023-03-17T01:38:39.780Z,3.91
2023-03-17T01:39:12.444Z,3.90
2023-03-17T01:39:45.101Z,3.91
2023-03-17T01:40:17.776Z,3.91
2023-03-17T01:40:50.470Z,3.91
2023-03-17T01:41:23.149Z,3.93
2023-03-17T01:41:55.830Z,3.93
2023-03-17T01:42:28.521Z,3.91
2023-03-17T01:43:01.203Z,3.93
2023-03-17T01:43:33.877Z,3.93
2023-03-17T01:44:06.558Z,3.94
2023-03-17T01:44:39.226Z,3.94
2023-03-17T01:45:11.899Z,3.96
2023-03-17T01:45:44.609Z,3.94
2023-03-17T01:46:17.287Z,3.94
2023-03-17T01:46:49.934Z,3.94
2023-03-17T01:47:22.602Z,3.94
2023-03-17T01:47:55.275Z,3.93
2023-03-17T01:48:27.963Z,3.93
2023-03-17T01:49:00.633Z,3.94
2023-03-17T01:49:33.309Z,3.94
2023-03-17T01:50:05.977Z,3.93
2023-03-17T01:50:38.646Z,3.94
2023-03-17T01:51:11.330Z,3.96
2023-03-17T01:51:44.011Z,3.94
2023-03-17T01:52:16.693Z,3.91
2023-03-17T01:52:49.327Z,3.93
2023-03-17T01:53:21.987Z,3.93
2023-03-17T01:53:54.653Z,3.93
2023-03-17T01:54:27.331Z,3.90
2023-03-17T01:54:59.987Z,3.93
2023-03-17T01:55:32.656Z,3.90
2023-03-17T01:56:05.343Z,3.91
2023-03-17T01:56:38.029Z,3.91
2023-03-17T01:57:10.707Z,3.90
2023-03-17T01:57:43.349Z,3.90
2023-03-17T01:58:16.069Z,3.90
2023-03-17T01:58:48.724Z,3.90
2023-03-17T01:59:21.414Z,3.91
2023-03-17T01:59:54.159Z,3.90
2023-03-17T02:00:26.817Z,3.90
2023-03-17T02:00:59.546Z,3.90
2023-03-17T02:01:32.200Z,3.91
2023-03-17T02:02:04.842Z,3.91
2023-03-17T02:02:37.506Z,3.88
2023-03-17T02:03:10.191Z,3.90
2023-03-17T02:03:42.866Z,3.88
2023-03-17T02:04:13.970Z,3.88
2023-03-17T02:04:46.636Z,3.88
2023-03-17T02:05:19.299Z,3.90
2023-03-17T02:05:51.966Z,3.88
2023-03-17T02:06:24.682Z,3.87
2023-03-17T02:06:58.804Z,3.88
2023-03-17T02:07:28.446Z,3.90
2023-03-17T02:08:01.152Z,3.90
2023-03-17T02:08:33.795Z,3.88
2023-03-17T02:09:06.453Z,3.90
2023-03-17T02:09:39.122Z,3.87
2023-03-17T02:10:11.799Z,3.88
2023-03-17T02:10:44.468Z,3.88
2023-03-17T02:11:17.165Z,3.86
2023-03-17T02:11:49.837Z,3.87
2023-03-17T02:12:22.500Z,3.88
2023-03-17T02:12:55.168Z,3.88
2023-03-17T02:13:27.834Z,3.87
2023-03-17T02:14:00.501Z,3.87
2023-03-17T02:14:33.176Z,3.86
2023-03-17T02:15:05.838Z,3.86
2023-03-17T02:15:38.499Z,3.87
2023-03-17T02:16:11.323Z,3.87
2023-03-17T02:16:44.163Z,3.86
2023-03-17T02:17:16.827Z,3.84
2023-03-17T02:17:49.504Z,3.87
2023-03-17T02:18:22.175Z,3.86
2023-03-17T02:18:54.830Z,3.84
2023-03-17T02:19:27.492Z,3.86
2023-03-17T02:20:00.166Z,3.86
2023-03-17T02:20:32.841Z,3.84
2023-03-17T02:21:05.545Z,3.84
2023-03-17T02:21:38.205Z,3.83
2023-03-17T02:22:10.844Z,3.80
2023-03-17T02:22:43.503Z,3.80
2023-03-17T02:23:16.166Z,3.83
2023-03-17T02:23:48.849Z,3.80
2023-03-17T02:24:21.503Z,3.79
2023-03-17T02:24:54.177Z,3.79
2023-03-17T02:25:26.840Z,3.79
2023-03-17T02:25:59.541Z,3.78
2023-03-17T02:26:32.202Z,3.76
2023-03-17T02:27:04.868Z,3.78
2023-03-17T02:27:37.534Z,3.75
2023-03-17T02:28:10.223Z,3.78
2023-03-17T02:28:42.885Z,3.78
2023-03-17T02:29:15.556Z,3.75
2023-03-17T02:29:48.226Z,3.76
2023-03-17T02:30:20.904Z,3.75
2023-03-17T02:30:53.651Z,3.76
2023-03-17T02:31:26.355Z,3.76
2023-03-17T02:31:59.041Z,3.76
2023-03-17T02:32:31.727Z,3.75
2023-03-17T02:33:04.442Z,3.76
2023-03-17T02:33:37.132Z,3.78
2023-03-17T02:34:09.779Z,3.75
2023-03-17T02:34:42.471Z,3.75
2023-03-17T02:35:15.125Z,3.75
2023-03-17T02:35:47.939Z,3.78
2023-03-17T02:36:20.745Z,3.78
2023-03-17T02:36:53.473Z,3.78
2023-03-17T02:37:26.167Z,3.78
2023-03-17T02:37:58.836Z,3.76
2023-03-17T02:38:31.498Z,3.76
2023-03-17T02:39:04.173Z,3.75
2023-03-17T02:39:36.826Z,3.76
2023-03-17T02:40:09.497Z,3.75
2023-03-17T02:40:42.171Z,3.75
2023-03-17T02:41:14.872Z,3.73
2023-03-17T02:41:47.532Z,3.76
2023-03-17T02:42:20.201Z,3.75
2023-03-17T02:42:51.293Z,3.75
2023-03-17T02:43:23.974Z,3.73
2023-03-17T02:43:56.635Z,3.73
2023-03-17T02:44:29.413Z,3.73
2023-03-17T02:45:02.059Z,3.72
2023-03-17T02:45:34.734Z,3.76
2023-03-17T02:46:07.466Z,3.73
2023-03-17T02:46:40.127Z,3.75
2023-03-17T02:47:12.816Z,3.75
2023-03-17T02:47:45.469Z,3.75
2023-03-17T02:48:18.150Z,3.73
2023-03-17T02:48:50.837Z,3.75
2023-03-17T02:49:23.502Z,3.76
2023-03-17T02:49:56.162Z,3.75
2023-03-17T02:50:29.197Z,3.76
2023-03-17T02:50:55.568Z,3.75
2023-03-17T02:51:28.271Z,3.78
2023-03-17T02:52:00.938Z,3.76
2023-03-17T02:52:33.605Z,3.78
2023-03-17T02:53:06.277Z,3.78
2023-03-17T02:53:38.965Z,3.78
2023-03-17T02:54:11.645Z,3.78
2023-03-17T02:54:44.327Z,3.78
2023-03-17T02:55:17.023Z,3.78
2023-03-17T02:55:49.704Z,3.79
2023-03-17T02:56:22.356Z,3.79
2023-03-17T02:56:55.130Z,3.78
2023-03-17T02:57:27.792Z,3.80
2023-03-17T02:58:00.457Z,3.80
2023-03-17T02:58:33.130Z,3.79
2023-03-17T02:59:05.789Z,3.79
2023-03-17T02:59:38.474Z,3.79
2023-03-17T03:00:11.142Z,3.84
2023-03-17T03:00:43.807Z,3.83
2023-03-17T03:01:16.487Z,3.83
2023-03-17T03:01:49.250Z,3.83
2023-03-17T03:02:22.006Z,3.83
2023-03-17T03:02:54.709Z,3.80
2023-03-17T03:03:27.429Z,3.83
2023-03-17T03:04:00.122Z,3.80
2023-03-17T03:04:32.762Z,3.83
2023-03-17T03:05:05.442Z,3.83
2023-03-17T03:05:38.107Z,3.83
2023-03-17T03:06:10.787Z,3.83
2023-03-17T03:06:43.445Z,3.80
2023-03-17T03:07:16.132Z,3.80
2023-03-17T03:07:48.808Z,3.80
2023-03-17T03:08:21.461Z,3.79
2023-03-17T03:08:54.169Z,3.79
2023-03-17T03:09:26.817Z,3.79
2023-03-17T03:09:59.490Z,3.78
2023-03-17T03:10:32.617Z,3.79
2023-03-17T03:10:58.854Z,3.78
2023-03-17T03:11:31.524Z,3.78
2023-03-17T03:12:04.198Z,3.78
2023-03-17T03:12:36.872Z,3.80
2023-03-17T03:13:09.556Z,3.80
2023-03-17T03:13:42.256Z,3.79
2023-03-17T03:14:14.951Z,3.80
2023-03-17T03:14:47.619Z,3.86
2023-03-17T03:15:20.293Z,3.83
2023-03-17T03:15:53.038Z,3.83
2023-03-17T03:16:25.701Z,3.84
2023-03-17T03:16:58.411Z,3.84
2023-03-17T03:17:31.118Z,3.86
2023-03-17T03:18:03.758Z,3.84
2023-03-17T03:18:36.431Z,3.86
2023-03-17T03:19:09.108Z,3.86
2023-03-17T03:19:41.782Z,3.87
2023-03-17T03:20:14.449Z,3.88
2023-03-17T03:20:47.118Z,3.88
2023-03-17T03:21:19.792Z,3.87
2023-03-17T03:21:52.466Z,3.87
2023-03-17T03:22:25.159Z,3.88
2023-03-17T03:22:57.824Z,3.90
2023-03-17T03:23:30.497Z,3.90
2023-03-17T03:24:03.168Z,3.91
2023-03-17T03:24:35.855Z,3.88
2023-03-17T03:25:08.533Z,3.90
2023-03-17T03:25:41.200Z,3.90
2023-03-17T03:26:13.869Z,3.90
2023-03-17T03:26:46.543Z,3.90
2023-03-17T03:27:19.233Z,3.93
2023-03-17T03:27:51.903Z,3.91
2023-03-17T03:28:24.573Z,3.93
2023-03-17T03:28:57.243Z,3.91
2023-03-17T03:29:29.980Z,3.93
2023-03-17T03:30:02.614Z,3.91
2023-03-17T03:30:35.294Z,3.93
2023-03-17T03:31:08.059Z,3.93
2023-03-17T03:31:40.733Z,3.94
2023-03-17T03:32:13.438Z,3.94
2023-03-17T03:32:46.185Z,3.91
2023-03-17T03:33:18.849Z,3.93
2023-03-17T03:33:51.537Z,3.91
2023-03-17T03:34:24.205Z,3.91
2023-03-17T03:34:56.889Z,3.93
2023-03-17T03:35:29.562Z,3.93
2023-03-17T03:36:02.320Z,3.90
2023-03-17T03:36:34.992Z,3.91
2023-03-17T03:37:07.678Z,3.93
2023-03-17T03:37:40.348Z,3.91
2023-03-17T03:38:13.019Z,3.93
2023-03-17T03:38:45.696Z,3.93
2023-03-17T03:39:18.376Z,3.91
2023-03-17T03:39:51.046Z,3.90
2023-03-17T03:40:23.778Z,3.88
2023-03-17T03:40:56.452Z,3.88
2023-03-17T03:41:29.126Z,3.90
2023-03-17T03:42:01.797Z,3.90
2023-03-17T03:42:34.465Z,3.88
2023-03-17T03:43:22.033Z,3.88
2023-03-17T03:43:39.214Z,3.87
2023-03-17T03:44:05.394Z,3.87
2023-03-17T03:44:38.059Z,3.90
2023-03-17T03:45:10.716Z,3.90
2023-03-17T03:45:43.384Z,3.90
2023-03-17T03:46:16.122Z,3.90
2023-03-17T03:46:48.840Z,3.90
2023-03-17T03:47:21.512Z,3.91
2023-03-17T03:47:54.189Z,3.91
2023-03-17T03:48:26.830Z,3.91
2023-03-17T03:48:59.510Z,3.90
2023-03-17T03:49:32.174Z,3.91
2023-03-17T03:50:04.828Z,3.90
2023-03-17T03:50:37.530Z,3.91
2023-03-17T03:51:10.374Z,3.91
2023-03-17T03:51:43.052Z,3.90
2023-03-17T03:52:15.716Z,3.90
2023-03-17T03:52:48.394Z,3.90
2023-03-17T03:53:21.064Z,3.91
2023-03-17T03:53:52.158Z,3.90
2023-03-17T03:54:24.818Z,3.88
2023-03-17T03:54:57.494Z,3.88
2023-03-17T03:55:30.155Z,3.90
2023-03-17T03:56:02.847Z,3.88
2023-03-17T03:56:35.489Z,3.88
2023-03-17T03:57:08.180Z,3.87
2023-03-17T03:57:40.898Z,3.88
2023-03-17T03:58:13.544Z,3.88
2023-03-17T03:58:46.224Z,3.88
2023-03-17T03:59:18.950Z,3.88
2023-03-17T03:59:51.611Z,3.87
2023-03-17T04:00:24.292Z,3.90
2023-03-17T04:00:57.004Z,3.88
2023-03-17T04:01:29.654Z,3.87
2023-03-17T04:02:02.346Z,3.88
2023-03-17T04:02:35.050Z,3.87
2023-03-17T04:03:07.890Z,3.87
2023-03-17T04:03:40.630Z,3.87
2023-03-17T04:04:13.313Z,3.86
2023-03-17T04:04:45.998Z,3.87
2023-03-17T04:05:18.716Z,3.88
2023-03-17T04:05:51.398Z,3.88
2023-03-17T04:06:24.081Z,3.87
2023-03-17T04:06:56.756Z,3.88
2023-03-17T04:07:29.415Z,3.87
2023-03-17T04:08:02.095Z,3.87
2023-03-17T04:08:34.767Z,3.86
2023-03-17T04:09:07.438Z,3.87
2023-03-17T04:09:40.110Z,3.87
2023-03-17T04:10:12.780Z,3.86
2023-03-17T04:10:45.455Z,3.87
2023-03-17T04:11:18.136Z,3.86
2023-03-17T04:11:50.827Z,3.87
2023-03-17T04:12:23.499Z,3.87
2023-03-17T04:12:56.174Z,3.86
2023-03-17T04:13:28.846Z,3.84
2023-03-17T04:14:01.516Z,3.86
2023-03-17T04:14:34.188Z,3.86
2023-03-17T04:15:06.866Z,3.84
2023-03-17T04:15:39.533Z,3.86
2023-03-17T04:16:12.301Z,3.84
2023-03-17T04:16:44.967Z,3.86
2023-03-17T04:17:17.645Z,3.84
2023-03-17T04:17:50.314Z,3.86
2023-03-17T04:18:23.129Z,3.84
2023-03-17T04:18:55.818Z,3.83
2023-03-17T04:19:28.475Z,3.83
2023-03-17T04:20:01.157Z,3.86
2023-03-17T04:20:33.812Z,3.84
2023-03-17T04:21:06.476Z,3.84
2023-03-17T04:21:37.573Z,3.83
2023-03-17T04:22:10.331Z,3.83
2023-03-17T04:22:42.973Z,3.83
2023-03-17T04:23:15.648Z,3.84
2023-03-17T04:23:48.306Z,3.86
2023-03-17T04:24:20.973Z,3.86
2023-03-17T04:24:53.659Z,3.86
2023-03-17T04:25:26.341Z,3.86
2023-03-17T04:25:59.035Z,3.86
2023-03-17T04:26:31.691Z,3.86
2023-03-17T04:27:06.078Z,3.87
2023-03-17T04:27:32.465Z,3.86
2023-03-17T04:28:05.161Z,3.84
2023-03-17T04:28:37.822Z,3.84
2023-03-17T04:29:10.498Z,3.86
2023-03-17T04:29:43.160Z,3.84
2023-03-17T04:30:15.824Z,3.84
2023-03-17T04:30:48.485Z,3.84
2023-03-17T04:31:21.223Z,3.83
2023-03-17T04:31:54.047Z,3.83
2023-03-17T04:32:27.267Z,3.80
2023-03-17T04:32:53.524Z,3.80
2023-03-17T04:33:26.189Z,3.80
2023-03-17T04:33:58.864Z,3.79
2023-03-17T04:34:31.540Z,3.78
2023-03-17T04:35:04.204Z,3.78
2023-03-17T04:35:36.902Z,3.76
2023-03-17T04:36:09.680Z,3.76
2023-03-17T04:36:42.332Z,3.76
2023-03-17T04:37:15.016Z,3.76
2023-03-17T04:37:47.692Z,3.76
2023-03-17T04:38:20.372Z,3.75
2023-03-17T04:38:53.046Z,3.75
2023-03-17T04:39:25.714Z,3.75
2023-03-17T04:39:58.380Z,3.75
2023-03-17T04:40:31.447Z,3.75
2023-03-17T04:40:57.816Z,3.75
2023-03-17T04:41:30.473Z,3.73
2023-03-17T04:42:03.169Z,3.75
2023-03-17T04:42:35.842Z,3.76
2023-03-17T04:43:08.507Z,3.75
2023-03-17T04:43:41.185Z,3.78
2023-03-17T04:44:13.872Z,3.75
2023-03-17T04:44:46.536Z,3.75
2023-03-17T04:45:19.211Z,3.75
2023-03-17T04:45:51.901Z,3.75
2023-03-17T04:46:24.575Z,3.78
2023-03-17T04:46:57.256Z,3.75
2023-03-17T04:47:29.942Z,3.75
2023-03-17T04:48:02.618Z,3.75
2023-03-17T04:48:35.303Z,3.73
2023-03-17T04:49:07.949Z,3.73
2023-03-17T04:49:40.618Z,3.72
2023-03-17T04:50:13.280Z,3.73
2023-03-17T04:50:45.969Z,3.73
2023-03-17T04:51:18.632Z,3.72
2023-03-17T04:51:51.299Z,3.70
2023-03-17T04:52:23.989Z,3.72
2023-03-17T04:52:56.659Z,3.70
2023-03-17T04:53:27.756Z,3.72
2023-03-17T04:54:00.436Z,3.70
2023-03-17T04:54:33.095Z,3.69
2023-03-17T04:55:05.767Z,3.69
2023-03-17T04:55:38.455Z,3.69
2023-03-17T04:56:11.119Z,3.68
2023-03-17T04:56:43.789Z,3.69
2023-03-17T04:57:16.485Z,3.68
2023-03-17T04:57:49.144Z,3.66
2023-03-17T04:58:30.319Z,3.68
2023-03-17T04:58:53.921Z,3.66
2023-03-17T04:59:20.096Z,3.65
2023-03-17T04:59:52.773Z,3.65
2023-03-17T05:00:25.458Z,3.65
2023-03-17T05:00:58.241Z,3.65
2023-03-17T05:01:30.929Z,3.65
2023-03-17T05:02:03.685Z,3.65
2023-03-17T05:02:36.359Z,3.65
2023-03-17T05:03:23.938Z,3.66
2023-03-17T05:03:41.144Z,3.65
2023-03-17T05:04:07.280Z,3.65
2023-03-17T05:04:39.956Z,3.65
2023-03-17T05:05:12.630Z,3.62
2023-03-17T05:05:45.284Z,3.62
2023-03-17T05:06:17.955Z,3.62
2023-03-17T05:06:50.624Z,3.61
2023-03-17T05:07:23.306Z,3.60
2023-03-17T05:07:55.973Z,3.60
2023-03-17T05:08:28.654Z,3.61
2023-03-17T05:09:01.321Z,3.61
2023-03-17T05:09:33.984Z,3.60
2023-03-17T05:10:06.659Z,3.60
2023-03-17T05:10:39.322Z,3.61
2023-03-17T05:11:11.995Z,3.60
2023-03-17T05:11:44.662Z,3.60
2023-03-17T05:12:17.355Z,3.60
2023-03-17T05:12:50.025Z,3.57
2023-03-17T05:13:22.699Z,3.58
2023-03-17T05:13:53.783Z,3.58
2023-03-17T05:14:26.494Z,3.57
2023-03-17T05:14:59.161Z,3.58
2023-03-17T05:15:31.818Z,3.57
2023-03-17T05:16:04.523Z,3.58
2023-03-17T05:16:37.256Z,3.57
2023-03-17T05:17:09.962Z,3.55
2023-03-17T05:17:42.633Z,3.55
2023-03-17T05:18:15.308Z,3.55
2023-03-17T05:18:47.991Z,3.55
2023-03-17T05:19:20.632Z,3.55
2023-03-17T05:19:53.326Z,3.55
2023-03-17T05:20:25.991Z,3.54
2023-03-17T05:20:58.673Z,3.55
2023-03-17T05:21:31.364Z,3.55
2023-03-17T05:22:04.044Z,3.54
2023-03-17T05:22:36.711Z,3.54
2023-03-17T05:23:09.455Z,3.54
2023-03-17T05:23:42.124Z,3.54
2023-03-17T05:24:14.798Z,3.54
2023-03-17T05:24:47.476Z,3.54
2023-03-17T05:25:20.145Z,3.54
2023-03-17T05:25:52.806Z,3.55
2023-03-17T05:26:25.477Z,3.57
2023-03-17T05:26:58.160Z,3.55
2023-03-17T05:27:30.830Z,3.54
2023-03-17T05:28:03.500Z,3.54
2023-03-17T05:28:36.166Z,3.55
2023-03-17T05:29:08.839Z,3.57
2023-03-17T05:29:41.511Z,3.57
2023-03-17T05:30:14.182Z,3.55
2023-03-17T05:30:46.880Z,3.57
2023-03-17T05:31:19.566Z,3.57
2023-03-17T05:31:52.254Z,3.57
2023-03-17T05:32:24.940Z,3.57
2023-03-17T05:32:57.664Z,3.55
2023-03-17T05:33:30.309Z,3.58
2023-03-17T05:34:03.019Z,3.55
2023-03-17T05:34:35.669Z,3.55
2023-03-17T05:35:08.342Z,3.57
2023-03-17T05:35:41.020Z,3.57
2023-03-17T05:36:13.680Z,3.58
2023-03-17T05:36:46.383Z,3.60
2023-03-17T05:37:19.041Z,3.61
2023-03-17T05:37:51.710Z,3.60
2023-03-17T05:38:24.407Z,3.61
2023-03-17T05:38:57.070Z,3.61
2023-03-17T05:39:29.759Z,3.62
2023-03-17T05:40:02.421Z,3.60
2023-03-17T05:40:35.110Z,3.61
2023-03-17T05:41:07.782Z,3.61
2023-03-17T05:41:40.448Z,3.61
2023-03-17T05:42:13.120Z,3.61
2023-03-17T05:42:45.803Z,3.62
2023-03-17T05:43:18.460Z,3.62
2023-03-17T05:43:51.138Z,3.62
2023-03-17T05:44:23.809Z,3.62
2023-03-17T05:44:56.487Z,3.62
2023-03-17T05:45:29.168Z,3.62
2023-03-17T05:46:01.864Z,3.62
2023-03-17T05:46:34.626Z,3.62
2023-03-17T05:47:07.338Z,3.62
2023-03-17T05:47:40.020Z,3.62
2023-03-17T05:48:12.693Z,3.62
2023-03-17T05:48:45.373Z,3.62
2023-03-17T05:49:18.072Z,3.62
2023-03-17T05:49:50.706Z,3.65
2023-03-17T05:50:23.392Z,3.66
2023-03-17T05:50:56.063Z,3.65
2023-03-17T05:51:28.730Z,3.66
2023-03-17T05:52:01.505Z,3.66
2023-03-17T05:52:34.172Z,3.66
2023-03-17T05:53:06.837Z,3.66
2023-03-17T05:53:39.510Z,3.66
2023-03-17T05:54:12.275Z,3.66
2023-03-17T05:54:44.927Z,3.65
2023-03-17T05:55:17.605Z,3.68
2023-03-17T05:55:50.275Z,3.68
2023-03-17T05:56:22.950Z,3.68
2023-03-17T05:56:55.640Z,3.68
2023-03-17T05:57:28.339Z,3.69
2023-03-17T05:58:01.013Z,3.68
2023-03-17T05:58:33.697Z,3.69
2023-03-17T05:59:06.360Z,3.69
2023-03-17T05:59:39.043Z,3.70
2023-03-17T06:00:12.723Z,3.70
2023-03-17T06:00:38.975Z,3.69
2023-03-17T06:01:11.664Z,3.72
2023-03-17T06:01:44.333Z,3.70
2023-03-17T06:02:17.091Z,3.72
2023-03-17T06:02:48.129Z,3.70
2023-03-17T06:03:20.826Z,3.73
2023-03-17T06:03:53.524Z,3.73
2023-03-17T06:04:26.224Z,3.72
2023-03-17T06:04:58.872Z,3.72
2023-03-17T06:05:31.550Z,3.72
2023-03-17T06:06:04.210Z,3.72
2023-03-17T06:06:36.875Z,3.73
2023-03-17T06:07:09.561Z,3.73
2023-03-17T06:07:53.130Z,3.73
2023-03-17T06:08:13.333Z,3.75
2023-03-17T06:08:45.986Z,3.75
2023-03-17T06:09:18.664Z,3.73
2023-03-17T06:09:51.337Z,3.76
2023-03-17T06:10:24.036Z,3.76
2023-03-17T06:10:56.757Z,3.75
2023-03-17T06:11:29.415Z,3.78
2023-03-17T06:12:02.088Z,3.76
2023-03-17T06:12:34.766Z,3.79
2023-03-17T06:13:07.435Z,3.78
2023-03-17T06:13:40.117Z,3.79
2023-03-17T06:14:12.792Z,3.79
2023-03-17T06:14:45.456Z,3.80
2023-03-17T06:15:18.134Z,3.83
2023-03-17T06:15:50.856Z,3.80
2023-03-17T06:16:23.730Z,3.84
2023-03-17T06:16:56.449Z,3.80
2023-03-17T06:17:29.120Z,3.84
2023-03-17T06:18:01.809Z,3.86
2023-03-17T06:18:34.462Z,3.87
2023-03-17T06:19:07.132Z,3.87
2023-03-17T06:19:39.910Z,3.87
2023-03-17T06:20:12.548Z,3.90
2023-03-17T06:20:45.217Z,3.90
2023-03-17T06:21:17.892Z,3.88
2023-03-17T06:21:50.550Z,3.90
2023-03-17T06:22:23.231Z,3.90
2023-03-17T06:23:04.320Z,3.88
2023-03-17T06:23:28.005Z,3.91
2023-03-17T06:23:54.178Z,3.91
2023-03-17T06:24:26.847Z,3.91
2023-03-17T06:24:59.518Z,3.93
2023-03-17T06:25:32.663Z,3.93
2023-03-17T06:25:59.093Z,3.93
2023-03-17T06:26:31.739Z,3.94
2023-03-17T06:27:04.437Z,3.93
2023-03-17T06:27:37.106Z,3.96
2023-03-17T06:28:09.840Z,3.96
2023-03-17T06:28:42.512Z,3.94
2023-03-17T06:29:15.176Z,3.96
2023-03-17T06:29:47.848Z,3.96
2023-03-17T06:30:20.513Z,3.94
2023-03-17T06:30:53.201Z,3.94
2023-03-17T06:31:25.887Z,3.97
2023-03-17T06:32:09.256Z,3.98
2023-03-17T06:32:30.691Z,3.98
2023-03-17T06:32:56.999Z,3.96
2023-03-17T06:33:28.011Z,3.96
2023-03-17T06:34:00.662Z,3.96
2023-03-17T06:34:33.328Z,3.98
2023-03-17T06:35:06.023Z,3.98
2023-03-17T06:35:38.741Z,4.00
2023-03-17T06:36:11.411Z,4.02
2023-03-17T06:36:44.083Z,4.04
2023-03-17T06:37:16.777Z,4.05
2023-03-17T06:37:49.443Z,4.05
2023-03-17T06:38:22.128Z,4.04
2023-03-17T06:38:54.803Z,4.05
2023-03-17T06:39:27.472Z,4.05
2023-03-17T06:40:00.173Z,4.08
2023-03-17T06:40:32.811Z,4.08
2023-03-17T06:41:05.573Z,4.06
2023-03-17T06:41:38.207Z,4.06
2023-03-17T06:42:10.877Z,4.08
2023-03-17T06:42:43.557Z,4.09
2023-03-17T06:43:16.218Z,4.09
2023-03-17T06:43:48.888Z,4.11
2023-03-17T06:44:21.555Z,4.12
2023-03-17T06:44:54.234Z,4.12
2023-03-17T06:45:26.891Z,4.12
2023-03-17T06:45:59.564Z,4.12
2023-03-17T06:46:32.332Z,4.11
2023-03-17T06:47:05.000Z,4.12
2023-03-17T06:47:37.672Z,4.15
2023-03-17T06:48:10.350Z,4.14
2023-03-17T06:48:43.033Z,4.14
2023-03-17T06:49:15.702Z,4.15
2023-03-17T06:49:48.390Z,4.16
2023-03-17T06:50:21.086Z,4.16
2023-03-17T06:50:53.734Z,4.16
2023-03-17T06:51:26.409Z,4.15
2023-03-17T06:51:59.102Z,4.18
2023-03-17T06:52:31.776Z,4.18
2023-03-17T06:53:04.469Z,4.16
2023-03-17T06:53:37.127Z,4.16
2023-03-17T06:54:09.805Z,4.18
2023-03-17T06:54:42.476Z,4.20
2023-03-17T06:55:15.268Z,4.20
2023-03-17T06:55:47.936Z,4.20
2023-03-17T06:56:29.775Z,4.22
2023-03-17T06:56:52.695Z,4.23
2023-03-17T06:57:18.868Z,4.20
2023-03-17T06:57:51.579Z,4.23
2023-03-17T06:58:24.233Z,4.23
2023-03-17T06:58:56.924Z,4.24
2023-03-17T06:59:29.558Z,4.26
2023-03-17T07:00:02.279Z,4.27
2023-03-17T07:00:34.931Z,4.29
2023-03-17T07:01:07.604Z,4.29
2023-03-17T07:01:40.330Z,4.32
2023-03-17T07:02:12.967Z,4.32
2023-03-17T07:02:45.644Z,4.34
2023-03-17T07:03:18.313Z,4.36
2023-03-17T07:03:50.981Z,4.36
2023-03-17T07:04:23.769Z,4.37
2023-03-17T07:04:56.482Z,4.37
2023-03-17T07:05:29.689Z,4.41
2023-03-17T07:05:56.052Z,4.41
2023-03-17T07:06:28.728Z,4.44
2023-03-17T07:07:01.381Z,4.45
2023-03-17T07:07:34.069Z,4.47
2023-03-17T07:08:06.769Z,4.45
2023-03-17T07:08:39.444Z,4.47
2023-03-17T07:09:12.106Z,4.48
2023-03-17T07:09:44.773Z,4.48
2023-03-17T07:10:17.467Z,4.50
2023-03-17T07:10:50.166Z,4.50
2023-03-17T07:11:22.802Z,4.51
2023-03-17T07:11:55.499Z,4.52
2023-03-17T07:12:28.145Z,4.54
2023-03-17T07:13:00.822Z,4.54